createdAt,value
2019-05-11T00:00:21.944Z,99.90
2019-05-11T00:02:59.637Z,99.90
2019-05-11T00:05:35.352Z,99.90
2019-05-11T00:08:13.559Z,99.90
2019-05-11T00:10:56.459Z,99.90
2019-05-11T00:13:31.885Z,99.90
2019-05-11T00:16:07.283Z,99.90
2019-05-11T00:18:42.613Z,99.90
2019-05-11T00:21:17.986Z,99.90
2019-05-11T00:23:53.429Z,99.90
2019-05-11T00:26:28.931Z,99.90
2019-05-11T00:29:05.534Z,99.90
2019-05-11T00:31:41.040Z,99.90
2019-05-11T00:34:16.685Z,99.90
2019-05-11T00:36:52.082Z,99.90
2019-05-11T00:39:27.581Z,99.90
2019-05-11T00:42:02.994Z,99.90
2019-05-11T00:44:38.316Z,99.90
2019-05-11T00:47:13.722Z,99.90
2019-05-11T00:49:49.142Z,99.90
2019-05-11T00:52:24.631Z,99.90
2019-05-11T00:55:00.103Z,99.90
2019-05-11T00:57:35.615Z,99.90
2019-05-11T01:00:11.245Z,99.90
2019-05-11T01:02:46.702Z,99.90
2019-05-11T01:05:22.134Z,99.90
2019-05-11T01:07:57.557Z,99.90
2019-05-11T01:10:41.699Z,99.90
2019-05-11T01:13:10.019Z,99.90
2019-05-11T01:15:45.317Z,99.90
2019-05-11T01:18:20.799Z,99.90
2019-05-11T01:20:56.153Z,99.90
2019-05-11T01:23:31.502Z,99.90
2019-05-11T01:26:06.981Z,99.90
2019-05-11T01:28:42.444Z,99.90
2019-05-11T01:31:18.041Z,99.90
2019-05-11T01:33:53.522Z,99.90
2019-05-11T01:36:29.073Z,99.90
2019-05-11T01:39:06.659Z,99.90
2019-05-11T01:41:42.133Z,99.90
2019-05-11T01:44:17.671Z,99.90
2019-05-11T01:46:53.079Z,99.90
2019-05-11T01:49:28.516Z,99.90
2019-05-11T01:52:03.927Z,99.90
2019-05-11T01:54:39.338Z,99.90
2019-05-11T01:57:14.862Z,99.90
2019-05-11T01:59:50.552Z,99.90
2019-05-11T02:02:25.888Z,99.90
2019-05-11T02:05:19.476Z,99.90
2019-05-11T02:07:54.915Z,99.90
2019-05-11T02:10:30.976Z,99.90
2019-05-11T02:13:09.404Z,99.90
2019-05-11T02:15:44.837Z,99.90
2019-05-11T02:18:20.308Z,99.90
2019-05-11T02:20:55.795Z,99.90
2019-05-11T02:23:31.131Z,99.90
2019-05-11T02:26:06.852Z,99.90
2019-05-11T02:28:42.102Z,99.90
2019-05-11T02:31:17.519Z,99.90
2019-05-11T02:33:52.883Z,99.90
2019-05-11T02:36:28.350Z,99.90
2019-05-11T02:39:05.902Z,99.90
2019-05-11T02:41:41.418Z,99.90
2019-05-11T02:44:16.753Z,99.90
2019-05-11T02:46:52.255Z,99.90
2019-05-11T02:49:28.279Z,99.90
2019-05-11T02:52:04.943Z,99.90
2019-05-11T02:54:41.450Z,99.90
2019-05-11T02:57:16.931Z,99.90
2019-05-11T02:59:55.059Z,99.90
2019-05-11T03:02:30.432Z,99.90
2019-05-11T03:05:06.877Z,99.90
2019-05-11T03:07:42.319Z,99.90
2019-05-11T03:10:17.699Z,99.90
2019-05-11T03:12:53.177Z,99.90
2019-05-11T03:15:28.839Z,99.90
2019-05-11T03:18:04.297Z,99.90
2019-05-11T03:20:39.666Z,99.90
2019-05-11T03:23:15.059Z,99.90
2019-05-11T03:25:50.435Z,99.90
2019-05-11T03:28:25.953Z,99.90
2019-05-11T03:31:01.331Z,99.90
2019-05-11T03:33:36.791Z,99.90
2019-05-11T03:36:12.274Z,99.90
2019-05-11T03:38:47.729Z,99.90
2019-05-11T03:41:23.161Z,99.90
2019-05-11T03:43:58.686Z,99.90
2019-05-11T03:46:34.770Z,99.90
2019-05-11T03:49:10.128Z,99.90
2019-05-11T03:51:45.482Z,99.90
2019-05-11T03:54:20.826Z,99.90
2019-05-11T03:56:56.199Z,99.90
2019-05-11T03:59:31.771Z,99.90
2019-05-11T04:02:07.094Z,99.90
2019-05-11T04:04:42.409Z,99.90
2019-05-11T04:07:17.793Z,99.90
2019-05-11T04:09:53.195Z,99.90
2019-05-11T04:12:34.655Z,99.90
2019-05-11T04:15:05.878Z,99.90
2019-05-11T04:17:41.316Z,99.90
2019-05-11T04:20:16.729Z,99.90
2019-05-11T04:22:52.083Z,99.90
2019-05-11T04:25:27.528Z,99.90
2019-05-11T04:28:03.093Z,99.90
2019-05-11T04:30:38.641Z,99.90
2019-05-11T04:33:13.957Z,99.90
2019-05-11T04:35:49.404Z,99.90
2019-05-11T04:38:24.852Z,99.90
2019-05-11T04:41:00.170Z,99.90
2019-05-11T04:43:35.541Z,99.90
2019-05-11T04:46:11.079Z,99.90
2019-05-11T04:48:46.384Z,99.90
2019-05-11T04:51:21.750Z,99.90
2019-05-11T04:53:57.155Z,99.90
2019-05-11T04:56:32.732Z,99.90
2019-05-11T04:59:08.060Z,99.90
2019-05-11T05:01:43.480Z,99.90
2019-05-11T05:04:18.866Z,99.90
2019-05-11T05:06:59.982Z,99.90
2019-05-11T05:09:36.245Z,99.90
2019-05-11T05:12:13.593Z,99.90
2019-05-11T05:14:45.373Z,99.90
2019-05-11T05:17:20.752Z,99.90
2019-05-11T05:19:56.131Z,99.90
2019-05-11T05:22:31.698Z,99.90
2019-05-11T05:25:07.016Z,99.90
2019-05-11T05:27:42.350Z,99.90
2019-05-11T05:30:17.691Z,99.90
2019-05-11T05:32:53.234Z,99.90
2019-05-11T05:35:30.140Z,99.90
2019-05-11T05:38:05.680Z,99.90
2019-05-11T05:40:41.193Z,99.90
2019-05-11T05:43:26.409Z,99.90
2019-05-11T05:45:53.635Z,99.90
2019-05-11T05:48:32.041Z,99.90
2019-05-11T05:51:08.454Z,99.90
2019-05-11T05:53:43.855Z,99.90
2019-05-11T05:56:20.107Z,99.90
2019-05-11T05:58:55.616Z,99.90
2019-05-11T06:01:30.973Z,99.90
2019-05-11T06:04:06.399Z,99.90
2019-05-11T06:06:41.856Z,99.90
2019-05-11T06:09:17.365Z,99.90
2019-05-11T06:11:55.605Z,99.90
2019-05-11T06:14:30.937Z,99.90
2019-05-11T06:17:06.311Z,99.90
2019-05-11T06:19:41.700Z,99.90
2019-05-11T06:22:17.141Z,99.90
2019-05-11T06:24:52.587Z,99.90
2019-05-11T06:27:28.162Z,99.90
2019-05-11T06:30:03.666Z,99.90
2019-05-11T06:32:39.292Z,99.90
2019-05-11T06:35:14.910Z,99.90
2019-05-11T06:37:50.336Z,99.90
2019-05-11T06:40:28.682Z,99.90
2019-05-11T06:43:03.708Z,99.90
2019-05-11T06:45:39.362Z,99.90
2019-05-11T06:48:14.771Z,99.90
2019-05-11T06:50:50.307Z,99.90
2019-05-11T06:53:25.700Z,99.90
2019-05-11T06:56:01.203Z,99.90
2019-05-11T06:58:36.744Z,99.90
2019-05-11T07:01:12.298Z,99.90
2019-05-11T07:03:47.800Z,99.90
2019-05-11T07:06:26.870Z,99.90
2019-05-11T07:09:00.250Z,99.90
2019-05-11T07:11:35.692Z,99.90
2019-05-11T07:14:20.708Z,99.90
2019-05-11T07:16:49.125Z,99.90
2019-05-11T07:19:24.606Z,99.90
2019-05-11T07:21:59.937Z,99.90
2019-05-11T07:24:35.490Z,99.90
2019-05-11T07:27:11.020Z,99.90
2019-05-11T07:29:46.504Z,99.90
2019-05-11T07:32:25.615Z,99.90
2019-05-11T07:34:58.953Z,99.90
2019-05-11T07:37:34.433Z,99.90
2019-05-11T07:40:09.867Z,99.90
2019-05-11T07:42:45.263Z,99.90
2019-05-11T07:45:20.649Z,99.90
2019-05-11T07:47:56.034Z,99.90
2019-05-11T07:50:31.266Z,99.90
2019-05-11T07:53:08.269Z,99.90
2019-05-11T07:55:43.661Z,99.90
2019-05-11T07:58:20.178Z,99.90
2019-05-11T08:00:58.208Z,99.90
2019-05-11T08:03:33.192Z,99.90
2019-05-11T08:06:09.019Z,99.90
2019-05-11T08:08:44.414Z,99.90
2019-05-11T08:11:20.057Z,99.90
2019-05-11T08:13:55.595Z,99.90
2019-05-11T08:16:31.264Z,99.90
2019-05-11T08:19:10.041Z,99.90
2019-05-11T08:21:43.639Z,99.90
2019-05-11T08:24:18.964Z,99.90
2019-05-11T08:26:54.346Z,99.90
2019-05-11T08:29:30.370Z,99.80
2019-05-11T08:32:08.049Z,98.00
2019-05-11T08:34:44.819Z,98.90
2019-05-11T08:37:19.961Z,98.50
2019-05-11T08:39:55.469Z,98.00
2019-05-11T08:42:31.042Z,99.90
2019-05-11T08:45:20.394Z,99.30
2019-05-11T08:47:59.731Z,99.50
2019-05-11T08:50:39.081Z,99.50
2019-05-11T08:53:14.550Z,98.80
2019-05-11T08:55:50.383Z,98.90
2019-05-11T08:58:28.935Z,98.30
2019-05-11T09:01:04.397Z,98.10
2019-05-11T09:03:39.933Z,97.20
2019-05-11T09:06:17.681Z,96.80
2019-05-11T09:08:52.549Z,96.80
2019-05-11T09:11:29.163Z,95.50
2019-05-11T09:14:04.658Z,94.90
2019-05-11T09:16:40.829Z,95.70
2019-05-11T09:19:17.832Z,95.80
2019-05-11T09:21:53.423Z,94.40
2019-05-11T09:24:28.855Z,95.20
2019-05-11T09:27:04.390Z,95.40
2019-05-11T09:29:39.684Z,96.60
2019-05-11T09:32:15.082Z,94.00
2019-05-11T09:34:50.625Z,94.20
2019-05-11T09:37:27.753Z,94.20
2019-05-11T09:40:04.476Z,94.00
2019-05-11T09:42:39.876Z,93.70
2019-05-11T09:45:15.272Z,92.50
2019-05-11T09:47:50.872Z,93.90
2019-05-11T09:50:28.302Z,95.50
2019-05-11T09:53:03.342Z,93.30
2019-05-11T09:55:39.025Z,92.10
2019-05-11T09:58:14.658Z,93.20
2019-05-11T10:00:50.107Z,91.00
2019-05-11T10:03:27.978Z,90.30
2019-05-11T10:06:02.551Z,90.40
2019-05-11T10:08:38.272Z,85.70
2019-05-11T10:11:13.871Z,86.80
2019-05-11T10:13:49.513Z,89.50
2019-05-11T10:16:24.873Z,89.50
2019-05-11T10:19:00.463Z,90.70
2019-05-11T10:21:35.799Z,90.00
2019-05-11T10:24:11.415Z,84.50
2019-05-11T10:26:48.675Z,86.00
2019-05-11T10:29:23.962Z,84.50
2019-05-11T10:31:59.420Z,84.00
2019-05-11T10:34:34.903Z,85.10
2019-05-11T10:37:10.269Z,87.80
2019-05-11T10:39:45.807Z,90.30
2019-05-11T10:42:21.270Z,90.40
2019-05-11T10:44:58.272Z,91.60
2019-05-11T10:47:35.135Z,87.10
2019-05-11T10:50:11.007Z,84.40
2019-05-11T10:52:48.233Z,84.80
2019-05-11T10:55:24.304Z,79.90
2019-05-11T10:58:01.266Z,87.90
2019-05-11T11:00:38.904Z,86.50
2019-05-11T11:03:13.985Z,85.10
2019-05-11T11:05:49.344Z,82.60
2019-05-11T11:08:24.734Z,85.70
2019-05-11T11:11:00.147Z,85.60
2019-05-11T11:13:35.572Z,84.40
2019-05-11T11:16:11.037Z,83.40
2019-05-11T11:18:49.592Z,86.40
2019-05-11T11:21:25.026Z,87.50
2019-05-11T11:24:00.559Z,84.60
2019-05-11T11:26:37.947Z,83.20
2019-05-11T11:29:13.402Z,86.50
2019-05-11T11:31:49.050Z,85.00
2019-05-11T11:34:24.565Z,87.90
2019-05-11T11:37:00.115Z,88.20
2019-05-11T11:39:35.424Z,80.30
2019-05-11T11:42:14.319Z,79.80
2019-05-11T11:44:49.621Z,80.60
2019-05-11T11:47:25.181Z,83.10
2019-05-11T11:50:00.663Z,81.10
2019-05-11T11:52:38.111Z,79.60
2019-05-11T11:55:13.389Z,76.50
2019-05-11T11:57:50.390Z,76.80
2019-05-11T12:00:25.961Z,82.30
2019-05-11T12:03:01.539Z,78.00
2019-05-11T12:05:44.827Z,80.90
2019-05-11T12:08:20.261Z,79.30
2019-05-11T12:10:55.660Z,79.70
2019-05-11T12:13:31.090Z,84.20
2019-05-11T12:16:08.184Z,82.70
2019-05-11T12:18:43.657Z,84.90
2019-05-11T12:21:18.976Z,83.30
2019-05-11T12:23:58.640Z,84.30
2019-05-11T12:26:34.118Z,79.70
2019-05-11T12:29:09.530Z,75.70
2019-05-11T12:31:44.846Z,76.10
2019-05-11T12:34:20.232Z,76.70
2019-05-11T12:36:57.889Z,82.10
2019-05-11T12:39:33.083Z,77.40
2019-05-11T12:42:08.724Z,71.50
2019-05-11T12:44:44.181Z,69.90
2019-05-11T12:47:24.855Z,67.00
2019-05-11T12:49:58.495Z,69.80
2019-05-11T12:52:33.600Z,71.90
2019-05-11T12:55:09.327Z,66.40
2019-05-11T12:57:44.765Z,71.80
2019-05-11T13:00:21.163Z,67.50
2019-05-11T13:02:58.541Z,66.90
2019-05-11T13:05:33.588Z,68.10
2019-05-11T13:08:08.983Z,67.60
2019-05-11T13:10:47.718Z,74.60
2019-05-11T13:13:22.666Z,74.10
2019-05-11T13:15:58.639Z,76.40
2019-05-11T13:18:34.089Z,74.30
2019-05-11T13:21:09.572Z,78.50
2019-05-11T13:23:44.960Z,80.40
2019-05-11T13:26:20.387Z,82.30
2019-05-11T13:28:58.267Z,82.40
2019-05-11T13:31:33.371Z,79.60
2019-05-11T13:34:08.796Z,78.20
2019-05-11T13:36:44.275Z,77.60
2019-05-11T13:39:19.694Z,74.20
2019-05-11T13:41:55.159Z,70.30
2019-05-11T13:44:30.627Z,74.50
2019-05-11T13:47:05.971Z,73.20
2019-05-11T13:49:41.460Z,79.00
2019-05-11T13:52:18.045Z,68.30
2019-05-11T13:54:53.684Z,73.50
2019-05-11T13:57:29.126Z,74.90
2019-05-11T14:00:05.179Z,67.30
2019-05-11T14:02:40.842Z,64.10
2019-05-11T14:05:17.989Z,65.70
2019-05-11T14:07:53.474Z,70.20
2019-05-11T14:10:28.820Z,73.00
2019-05-11T14:13:04.332Z,72.50
2019-05-11T14:15:42.543Z,74.00
2019-05-11T14:18:18.414Z,76.90
2019-05-11T14:20:55.170Z,74.30
2019-05-11T14:23:31.389Z,79.00
2019-05-11T14:26:08.374Z,78.10
2019-05-11T14:28:44.140Z,71.40
2019-05-11T14:31:19.589Z,70.00
2019-05-11T14:33:54.945Z,70.60
2019-05-11T14:36:30.346Z,65.60
2019-05-11T14:39:08.482Z,64.50
2019-05-11T14:41:44.216Z,63.30
2019-05-11T14:44:19.596Z,64.40
2019-05-11T14:46:54.905Z,67.10
2019-05-11T14:49:30.261Z,61.20
2019-05-11T14:52:08.075Z,63.60
2019-05-11T14:54:42.741Z,66.70
2019-05-11T14:57:18.676Z,64.70
2019-05-11T14:59:54.211Z,58.70
2019-05-11T15:02:50.015Z,61.00
2019-05-11T15:05:25.557Z,59.90
2019-05-11T15:08:00.889Z,64.20
2019-05-11T15:10:38.335Z,60.30
2019-05-11T15:13:13.908Z,59.00
2019-05-11T15:15:49.367Z,59.70
2019-05-11T15:18:36.120Z,56.40
2019-05-11T15:21:08.276Z,59.10
2019-05-11T15:23:47.591Z,56.60
2019-05-11T15:26:23.333Z,54.60
2019-05-11T15:29:00.143Z,54.40
2019-05-11T15:31:38.159Z,59.30
2019-05-11T15:34:13.406Z,55.10
2019-05-11T15:36:49.212Z,53.00
2019-05-11T15:39:24.802Z,55.00
2019-05-11T15:42:10.297Z,54.70
2019-05-11T15:44:37.832Z,60.80
2019-05-11T15:47:13.484Z,57.50
2019-05-11T15:49:49.118Z,60.40
2019-05-11T15:52:24.588Z,56.70
2019-05-11T15:55:00.139Z,59.10
2019-05-11T15:57:35.646Z,63.60
2019-05-11T16:00:12.214Z,60.00
2019-05-11T16:02:49.078Z,59.30
2019-05-11T16:05:25.219Z,64.20
2019-05-11T16:08:01.796Z,57.20
2019-05-11T16:10:38.408Z,55.40
2019-05-11T16:13:15.240Z,57.30
2019-05-11T16:15:50.943Z,58.50
2019-05-11T16:18:26.574Z,61.30
2019-05-11T16:21:04.749Z,63.50
2019-05-11T16:23:40.201Z,60.50
2019-05-11T16:26:17.464Z,59.80
2019-05-11T16:28:52.745Z,62.20
2019-05-11T16:31:28.523Z,66.70
2019-05-11T16:34:04.215Z,66.10
2019-05-11T16:36:39.630Z,67.60
2019-05-11T16:39:15.176Z,66.30
2019-05-11T16:41:50.642Z,63.20
2019-05-11T16:44:26.045Z,69.60
2019-05-11T16:47:01.441Z,65.50
2019-05-11T16:49:38.392Z,64.60
2019-05-11T16:52:14.213Z,61.10
2019-05-11T16:54:49.722Z,64.90
2019-05-11T16:57:25.244Z,65.10
2019-05-11T17:00:00.714Z,63.60
2019-05-11T17:02:38.276Z,65.00
2019-05-11T17:05:25.856Z,64.90
2019-05-11T17:07:51.647Z,64.60
2019-05-11T17:10:28.416Z,66.40
2019-05-11T17:13:05.636Z,64.40
2019-05-11T17:15:41.479Z,65.50
2019-05-11T17:18:18.505Z,67.50
2019-05-11T17:20:54.080Z,69.90
2019-05-11T17:23:31.380Z,64.80
2019-05-11T17:26:08.711Z,62.70
2019-05-11T17:28:44.604Z,63.90
2019-05-11T17:31:20.271Z,65.80
2019-05-11T17:33:58.023Z,66.20
2019-05-11T17:36:33.042Z,69.80
2019-05-11T17:39:09.713Z,71.70
2019-05-11T17:41:45.131Z,71.20
2019-05-11T17:44:20.601Z,74.00
2019-05-11T17:46:57.816Z,70.20
2019-05-11T17:49:33.425Z,75.20
2019-05-11T17:52:08.841Z,71.90
2019-05-11T17:54:44.216Z,72.00
2019-05-11T17:57:19.720Z,71.50
2019-05-11T17:59:57.791Z,74.00
2019-05-11T18:02:32.739Z,74.00
2019-05-11T18:05:09.093Z,73.30
2019-05-11T18:07:44.742Z,72.20
2019-05-11T18:10:20.255Z,76.70
2019-05-11T18:12:57.893Z,73.90
2019-05-11T18:15:33.628Z,76.50
2019-05-11T18:18:12.575Z,77.40
2019-05-11T18:20:54.224Z,76.40
2019-05-11T18:23:32.162Z,76.60
2019-05-11T18:26:08.819Z,75.60
2019-05-11T18:29:08.058Z,76.40
2019-05-11T18:31:44.058Z,76.50
2019-05-11T18:34:23.322Z,75.80
2019-05-11T18:36:58.900Z,75.50
2019-05-11T18:39:37.899Z,76.10
2019-05-11T18:42:13.254Z,77.00
2019-05-11T18:44:48.699Z,80.80
2019-05-11T18:47:24.226Z,81.50
2019-05-11T18:49:59.668Z,79.30
2019-05-11T18:52:35.155Z,79.10
2019-05-11T18:55:10.597Z,79.60
2019-05-11T18:57:45.958Z,76.90
2019-05-11T19:00:21.598Z,75.30
2019-05-11T19:02:58.043Z,81.30
2019-05-11T19:05:33.837Z,78.80
2019-05-11T19:08:12.154Z,76.90
2019-05-11T19:10:48.789Z,78.60
2019-05-11T19:13:24.449Z,80.60
2019-05-11T19:16:00.990Z,80.10
2019-05-11T19:18:38.732Z,79.10
2019-05-11T19:21:14.637Z,78.40
2019-05-11T19:23:50.057Z,78.00
2019-05-11T19:26:25.487Z,78.50
2019-05-11T19:29:01.038Z,79.30
2019-05-11T19:31:38.609Z,77.20
2019-05-11T19:34:13.996Z,79.60
2019-05-11T19:36:49.434Z,82.00
2019-05-11T19:39:28.036Z,83.40
2019-05-11T19:42:03.561Z,82.80
2019-05-11T19:44:39.172Z,80.60
2019-05-11T19:47:19.354Z,81.50
2019-05-11T19:49:58.225Z,82.00
2019-05-11T19:52:39.719Z,82.60
2019-05-11T19:55:18.349Z,83.70
2019-05-11T19:57:55.220Z,83.50
2019-05-11T20:00:30.622Z,84.30
2019-05-11T20:03:09.384Z,82.50
2019-05-11T20:05:54.312Z,84.60
2019-05-11T20:08:29.852Z,81.30
2019-05-11T20:11:05.234Z,79.90
2019-05-11T20:13:41.033Z,84.40
2019-05-11T20:16:18.593Z,83.00
2019-05-11T20:18:53.585Z,84.10
2019-05-11T20:21:29.245Z,86.20
2019-05-11T20:24:04.672Z,87.10
2019-05-11T20:26:40.147Z,86.60
2019-05-11T20:29:15.620Z,85.60
2019-05-11T20:31:51.066Z,87.60
2019-05-11T20:34:28.811Z,87.70
2019-05-11T20:37:03.771Z,85.30
2019-05-11T20:39:39.453Z,87.50
2019-05-11T20:42:18.127Z,87.20
2019-05-11T20:44:59.101Z,88.50
2019-05-11T20:47:34.911Z,86.80
2019-05-11T20:50:10.492Z,89.50
2019-05-11T20:52:47.866Z,89.00
2019-05-11T20:55:47.830Z,87.30
2019-05-11T20:58:24.426Z,88.60
2019-05-11T21:00:59.820Z,88.60
2019-05-11T21:03:38.170Z,86.80
2019-05-11T21:06:13.739Z,87.20
2019-05-11T21:08:49.872Z,88.70
2019-05-11T21:11:25.458Z,89.50
2019-05-11T21:14:00.842Z,89.20
2019-05-11T21:16:38.438Z,90.20
2019-05-11T21:19:13.254Z,89.10
2019-05-11T21:21:53.432Z,90.60
2019-05-11T21:24:28.566Z,88.40
2019-05-11T21:27:03.906Z,86.70
2019-05-11T21:29:39.328Z,90.10
2019-05-11T21:32:14.902Z,87.30
2019-05-11T21:34:50.174Z,90.10
2019-05-11T21:37:27.635Z,90.90
2019-05-11T21:40:02.564Z,91.40
2019-05-11T21:42:39.114Z,89.70
2019-05-11T21:45:14.709Z,88.20
2019-05-11T21:47:50.115Z,89.70
2019-05-11T21:50:27.798Z,90.00
2019-05-11T21:53:02.382Z,90.10
2019-05-11T21:55:40.847Z,90.80
2019-05-11T21:58:18.235Z,91.20
2019-05-11T22:00:53.441Z,90.60
2019-05-11T22:03:30.465Z,90.60
2019-05-11T22:06:08.430Z,91.10
2019-05-11T22:08:42.868Z,91.50
2019-05-11T22:11:18.455Z,90.80
2019-05-11T22:13:53.833Z,90.60
2019-05-11T22:16:30.249Z,90.80
2019-05-11T22:19:08.661Z,90.60
2019-05-11T22:21:43.011Z,90.40
2019-05-11T22:24:18.551Z,90.70
2019-05-11T22:26:53.902Z,90.10
2019-05-11T22:29:30.304Z,91.00
2019-05-11T22:32:05.621Z,91.40
2019-05-11T22:34:41.099Z,91.20
2019-05-11T22:37:16.460Z,91.40
2019-05-11T22:39:51.951Z,91.40
2019-05-11T22:42:28.096Z,90.90
2019-05-11T22:45:03.562Z,91.10
2019-05-11T22:47:39.693Z,91.20
2019-05-11T22:50:15.270Z,91.20
2019-05-11T22:52:50.560Z,91.20
2019-05-11T22:55:27.761Z,91.40
2019-05-11T22:58:02.929Z,91.40
2019-05-11T23:00:43.676Z,91.20
2019-05-11T23:03:22.522Z,91.40
2019-05-11T23:05:58.203Z,91.90
2019-05-11T23:08:34.569Z,92.00
2019-05-11T23:11:10.542Z,92.30
2019-05-11T23:13:47.835Z,92.10
2019-05-11T23:16:22.923Z,92.10
2019-05-11T23:18:58.345Z,92.10
2019-05-11T23:21:38.991Z,92.30
2019-05-11T23:24:14.386Z,92.90
2019-05-11T23:26:49.871Z,92.40
2019-05-11T23:29:25.216Z,92.80
2019-05-11T23:32:00.825Z,92.60
2019-05-11T23:34:38.579Z,92.70
2019-05-11T23:37:13.213Z,92.50
2019-05-11T23:39:48.513Z,92.30
2019-05-11T23:42:24.223Z,92.60
2019-05-11T23:44:59.863Z,92.80
2019-05-11T23:47:35.267Z,93.20
2019-05-11T23:50:10.853Z,92.60
2019-05-11T23:52:48.529Z,92.70
2019-05-11T23:55:23.431Z,92.70
2019-05-11T23:57:58.767Z,92.80
